createdAt,value
2022-08-16T00:00:26.865Z,19.89
2022-08-16T00:01:33.805Z,19.89
2022-08-16T00:02:26.880Z,19.86
2022-08-16T00:03:26.873Z,19.91
2022-08-16T00:04:26.872Z,19.86
2022-08-16T00:05:27.511Z,19.95
2022-08-16T00:06:26.868Z,19.82
2022-08-16T00:07:26.870Z,19.76
2022-08-16T00:08:36.836Z,19.76
2022-08-16T00:09:26.845Z,19.74
2022-08-16T00:10:26.848Z,19.81
2022-08-16T00:11:26.825Z,19.85
2022-08-16T00:12:26.836Z,19.82
2022-08-16T00:13:26.842Z,19.86
2022-08-16T00:14:29.037Z,19.82
2022-08-16T00:15:51.468Z,19.73
2022-08-16T00:17:06.038Z,19.79
2022-08-16T00:17:26.822Z,19.77
2022-08-16T00:18:30.026Z,19.77
2022-08-16T00:19:28.329Z,19.81
2022-08-16T00:20:26.816Z,19.77
2022-08-16T00:21:29.132Z,19.79
2022-08-16T00:22:27.918Z,19.73
2022-08-16T00:23:34.572Z,19.79
2022-08-16T00:24:31.156Z,19.77
2022-08-16T00:26:13.594Z,19.82
2022-08-16T00:26:34.715Z,19.81
2022-08-16T00:27:26.764Z,19.71
2022-08-16T00:28:28.473Z,19.79
2022-08-16T00:29:26.752Z,19.69
2022-08-16T00:30:29.061Z,19.71
2022-08-16T00:31:26.732Z,19.55
2022-08-16T00:32:26.802Z,19.64
2022-08-16T00:33:26.746Z,19.70
2022-08-16T00:34:44.457Z,19.66
2022-08-16T00:35:26.749Z,19.62
2022-08-16T00:36:26.739Z,19.64
2022-08-16T00:37:57.392Z,19.62
2022-08-16T00:38:40.560Z,19.64
2022-08-16T00:39:26.714Z,19.63
2022-08-16T00:40:34.926Z,19.62
2022-08-16T00:41:26.752Z,19.58
2022-08-16T00:42:30.358Z,19.58
2022-08-16T00:43:40.810Z,19.59
2022-08-16T00:44:31.929Z,19.55
2022-08-16T00:45:26.668Z,19.66
2022-08-16T00:46:33.611Z,19.62
2022-08-16T00:47:26.704Z,19.56
2022-08-16T00:48:28.755Z,19.55
2022-08-16T00:49:26.685Z,19.63
2022-08-16T00:50:35.926Z,19.63
2022-08-16T00:51:26.658Z,19.56
2022-08-16T00:52:30.216Z,19.58
2022-08-16T00:53:26.641Z,19.41
2022-08-16T00:54:26.652Z,19.37
2022-08-16T00:55:26.648Z,19.41
2022-08-16T00:56:57.518Z,19.34
2022-08-16T00:57:26.621Z,19.39
2022-08-16T00:58:34.491Z,19.30
2022-08-16T00:59:26.630Z,19.30
2022-08-16T01:00:26.632Z,19.27
2022-08-16T01:01:26.638Z,19.24
2022-08-16T01:02:31.378Z,19.24
2022-08-16T01:03:29.449Z,19.18
2022-08-16T01:04:30.092Z,19.24
2022-08-16T01:05:26.671Z,19.21
2022-08-16T01:06:40.003Z,19.19
2022-08-16T01:07:26.593Z,19.16
2022-08-16T01:08:36.050Z,19.16
2022-08-16T01:09:26.562Z,19.21
2022-08-16T01:10:32.382Z,19.19
2022-08-16T01:11:26.589Z,19.22
2022-08-16T01:12:26.935Z,19.19
2022-08-16T01:13:26.904Z,19.24
2022-08-16T01:14:29.748Z,19.22
2022-08-16T01:15:26.557Z,19.14
2022-08-16T01:16:26.578Z,19.19
2022-08-16T01:17:26.584Z,19.22
2022-08-16T01:18:40.139Z,19.24
2022-08-16T01:19:26.559Z,19.15
2022-08-16T01:20:30.320Z,19.11
2022-08-16T01:21:33.943Z,19.26
2022-08-16T01:22:47.684Z,19.22
2022-08-16T01:23:26.552Z,19.15
2022-08-16T01:24:52.370Z,19.16
2022-08-16T01:25:33.763Z,19.12
2022-08-16T01:26:35.269Z,19.19
2022-08-16T01:27:26.494Z,19.16
2022-08-16T01:28:30.815Z,19.19
2022-08-16T01:29:49.619Z,19.16
2022-08-16T01:30:26.732Z,19.15
2022-08-16T01:31:30.994Z,19.18
2022-08-16T01:32:33.832Z,19.15
2022-08-16T01:33:33.454Z,19.16
2022-08-16T01:34:26.569Z,19.15
2022-08-16T01:35:26.496Z,19.11
2022-08-16T01:36:26.730Z,19.12
2022-08-16T01:37:26.462Z,19.14
2022-08-16T01:38:28.446Z,19.18
2022-08-16T01:39:26.516Z,19.14
2022-08-16T01:40:26.561Z,19.15
2022-08-16T01:41:26.439Z,19.11
2022-08-16T01:42:26.423Z,19.08
2022-08-16T01:43:26.422Z,19.07
2022-08-16T01:44:26.457Z,19.07
2022-08-16T01:45:39.740Z,19.00
2022-08-16T01:46:37.642Z,18.96
2022-08-16T01:47:26.427Z,19.00
2022-08-16T01:48:26.391Z,18.96
2022-08-16T01:49:26.398Z,18.93
2022-08-16T01:50:59.728Z,19.00
2022-08-16T01:51:26.429Z,18.93
2022-08-16T01:52:27.949Z,18.90
2022-08-16T01:53:26.386Z,18.93
2022-08-16T01:54:30.868Z,18.93
2022-08-16T01:55:26.368Z,18.90
2022-08-16T01:56:26.368Z,18.92
2022-08-16T01:57:26.364Z,18.84
2022-08-16T01:58:26.372Z,18.92
2022-08-16T01:59:26.378Z,18.92
2022-08-16T02:00:29.140Z,18.83
2022-08-16T02:01:28.104Z,18.92
2022-08-16T02:02:28.552Z,18.92
2022-08-16T02:03:26.802Z,18.83
2022-08-16T02:04:47.974Z,18.92
2022-08-16T02:05:30.358Z,18.89
2022-08-16T02:06:34.128Z,18.86
2022-08-16T02:07:26.682Z,18.75
2022-08-16T02:08:33.572Z,18.80
2022-08-16T02:09:26.310Z,18.84
2022-08-16T02:10:26.540Z,18.71
2022-08-16T02:11:26.530Z,18.70
2022-08-16T02:12:42.105Z,18.66
2022-08-16T02:13:27.829Z,18.62
2022-08-16T02:14:27.468Z,18.66
2022-08-16T02:15:26.531Z,18.70
2022-08-16T02:16:26.288Z,18.73
2022-08-16T02:17:26.606Z,18.60
2022-08-16T02:18:26.520Z,18.66
2022-08-16T02:19:58.815Z,18.68
2022-08-16T02:20:27.832Z,18.55
2022-08-16T02:21:31.707Z,18.70
2022-08-16T02:22:35.865Z,18.65
2022-08-16T02:23:26.496Z,18.59
2022-08-16T02:24:32.687Z,18.66
2022-08-16T02:25:50.662Z,18.59
2022-08-16T02:26:26.428Z,18.60
2022-08-16T02:27:26.599Z,18.58
2022-08-16T02:28:26.819Z,18.70
2022-08-16T02:29:31.949Z,18.56
2022-08-16T02:30:36.006Z,18.60
2022-08-16T02:32:03.499Z,18.52
2022-08-16T02:32:49.903Z,18.62
2022-08-16T02:33:43.876Z,18.50
2022-08-16T02:34:34.736Z,18.50
2022-08-16T02:35:26.436Z,18.44
2022-08-16T02:36:47.963Z,18.45
2022-08-16T02:37:51.331Z,18.43
2022-08-16T02:38:26.521Z,18.31
2022-08-16T02:39:26.389Z,18.34
2022-08-16T02:40:26.144Z,18.31
2022-08-16T02:41:26.314Z,18.35
2022-08-16T02:42:26.388Z,18.37
2022-08-16T02:43:26.640Z,18.33
2022-08-16T02:44:26.785Z,18.35
2022-08-16T02:45:27.912Z,18.35
2022-08-16T02:46:30.164Z,18.34
2022-08-16T02:47:26.315Z,18.35
2022-08-16T02:48:28.282Z,18.31
2022-08-16T02:49:57.962Z,18.29
2022-08-16T02:50:53.945Z,18.34
2022-08-16T02:51:26.366Z,18.37
2022-08-16T02:52:29.381Z,18.41
2022-08-16T02:53:26.333Z,18.40
2022-08-16T02:54:26.079Z,18.31
2022-08-16T02:55:41.231Z,18.31
2022-08-16T02:56:32.263Z,18.34
2022-08-16T02:57:26.340Z,18.38
2022-08-16T02:58:26.335Z,18.37
2022-08-16T02:59:26.309Z,18.33
2022-08-16T03:00:34.482Z,18.29
2022-08-16T03:01:36.636Z,18.33
2022-08-16T03:02:31.709Z,18.25
2022-08-16T03:03:26.350Z,18.26
2022-08-16T03:04:46.271Z,18.23
2022-08-16T03:05:26.237Z,18.28
2022-08-16T03:06:36.389Z,18.29
2022-08-16T03:07:27.386Z,18.26
2022-08-16T03:08:49.645Z,18.19
2022-08-16T03:09:28.556Z,18.20
2022-08-16T03:10:33.469Z,18.19
2022-08-16T03:11:26.305Z,18.23
2022-08-16T03:12:30.330Z,18.20
2022-08-16T03:13:26.045Z,18.22
2022-08-16T03:14:26.136Z,18.19
2022-08-16T03:15:26.245Z,18.23
2022-08-16T03:16:38.733Z,18.15
2022-08-16T03:17:32.307Z,18.22
2022-08-16T03:18:34.464Z,18.25
2022-08-16T03:19:26.345Z,18.23
2022-08-16T03:20:31.791Z,18.22
2022-08-16T03:21:26.192Z,18.20
2022-08-16T03:22:28.300Z,18.10
2022-08-16T03:23:25.938Z,18.19
2022-08-16T03:24:28.793Z,18.11
2022-08-16T03:25:26.141Z,18.00
2022-08-16T03:26:25.917Z,18.01
2022-08-16T03:27:31.384Z,17.98
2022-08-16T03:28:26.271Z,17.95
2022-08-16T03:29:25.905Z,17.94
2022-08-16T03:30:26.348Z,18.01
2022-08-16T03:31:26.081Z,18.01
2022-08-16T03:32:26.290Z,18.04
2022-08-16T03:33:26.286Z,18.01
2022-08-16T03:34:26.075Z,18.01
2022-08-16T03:35:33.071Z,17.98
2022-08-16T03:36:31.014Z,18.00
2022-08-16T03:37:26.097Z,18.00
2022-08-16T03:38:33.892Z,18.07
2022-08-16T03:39:26.041Z,18.00
2022-08-16T03:40:33.161Z,18.03
2022-08-16T03:41:29.524Z,17.97
2022-08-16T03:42:26.106Z,17.94
2022-08-16T03:43:51.149Z,17.86
2022-08-16T03:44:44.973Z,17.80
2022-08-16T03:45:27.341Z,17.71
2022-08-16T03:46:47.446Z,17.68
2022-08-16T03:47:25.819Z,17.65
2022-08-16T03:48:36.569Z,17.67
2022-08-16T03:49:36.971Z,17.57
2022-08-16T03:50:26.909Z,17.59
2022-08-16T03:51:26.054Z,17.57
2022-08-16T03:52:31.782Z,17.64
2022-08-16T03:53:26.042Z,17.63
2022-08-16T03:54:26.036Z,17.63
2022-08-16T03:55:26.044Z,17.63
2022-08-16T03:56:26.003Z,17.71
2022-08-16T03:57:32.095Z,17.59
2022-08-16T03:58:25.951Z,17.63
2022-08-16T03:59:29.808Z,17.72
2022-08-16T04:00:36.194Z,17.70
2022-08-16T04:01:29.271Z,17.70
2022-08-16T04:02:31.609Z,17.68
2022-08-16T04:03:25.718Z,17.68
2022-08-16T04:04:25.735Z,17.72
2022-08-16T04:05:25.723Z,17.65
2022-08-16T04:06:25.735Z,17.68
2022-08-16T04:07:25.740Z,17.70
2022-08-16T04:08:27.074Z,17.70
2022-08-16T04:09:25.741Z,17.68
2022-08-16T04:10:36.389Z,17.68
2022-08-16T04:11:25.697Z,17.60
2022-08-16T04:12:53.349Z,17.70
2022-08-16T04:14:01.161Z,17.70
2022-08-16T04:14:32.801Z,17.71
2022-08-16T04:15:25.700Z,17.74
2022-08-16T04:16:27.171Z,17.76
2022-08-16T04:17:26.952Z,17.79
2022-08-16T04:18:25.654Z,17.83
2022-08-16T04:19:25.704Z,17.86
2022-08-16T04:20:33.690Z,17.97
2022-08-16T04:21:29.400Z,18.03
2022-08-16T04:22:27.500Z,17.97
2022-08-16T04:23:25.630Z,18.11
2022-08-16T04:24:28.882Z,18.22
2022-08-16T04:25:25.634Z,18.15
2022-08-16T04:26:25.642Z,18.18
2022-08-16T04:27:29.034Z,18.29
2022-08-16T04:28:51.663Z,18.29
2022-08-16T04:29:25.645Z,18.49
2022-08-16T04:30:32.157Z,18.56
2022-08-16T04:31:25.601Z,18.65
2022-08-16T04:32:25.613Z,18.59
2022-08-16T04:33:27.027Z,18.70
2022-08-16T04:34:26.551Z,18.84
2022-08-16T04:35:25.565Z,18.99
2022-08-16T04:36:25.584Z,19.14
2022-08-16T04:37:25.602Z,19.22
2022-08-16T04:38:25.589Z,19.37
2022-08-16T04:39:45.981Z,19.49
2022-08-16T04:40:25.647Z,19.58
2022-08-16T04:41:32.408Z,19.64
2022-08-16T04:42:26.226Z,19.69
2022-08-16T04:43:25.534Z,19.62
2022-08-16T04:44:52.637Z,19.71
2022-08-16T04:45:36.071Z,19.76
2022-08-16T04:47:00.161Z,19.67
2022-08-16T04:47:25.540Z,19.77
2022-08-16T04:48:32.501Z,19.77
2022-08-16T04:49:25.507Z,19.67
2022-08-16T04:50:29.802Z,19.67
2022-08-16T04:51:25.485Z,19.69
2022-08-16T04:52:32.894Z,19.64
2022-08-16T04:53:25.522Z,19.64
2022-08-16T04:54:25.486Z,19.66
2022-08-16T04:55:37.720Z,19.71
2022-08-16T04:56:25.464Z,19.76
2022-08-16T04:57:25.476Z,19.74
2022-08-16T04:58:45.010Z,19.74
2022-08-16T04:59:29.497Z,19.94
2022-08-16T05:00:32.511Z,19.85
2022-08-16T05:01:57.718Z,19.79
2022-08-16T05:02:41.414Z,19.84
2022-08-16T05:03:26.171Z,19.86
2022-08-16T05:04:25.432Z,19.89
2022-08-16T05:05:25.418Z,19.74
2022-08-16T05:06:42.310Z,19.86
2022-08-16T05:07:25.414Z,19.86
2022-08-16T05:08:28.335Z,20.03
2022-08-16T05:09:25.442Z,20.04
2022-08-16T05:10:25.466Z,20.13
2022-08-16T05:11:25.424Z,20.14
2022-08-16T05:12:30.765Z,20.13
2022-08-16T05:13:41.267Z,20.13
2022-08-16T05:14:45.618Z,20.07
2022-08-16T05:15:25.374Z,20.21
2022-08-16T05:16:25.406Z,20.24
2022-08-16T05:17:25.414Z,20.39
2022-08-16T05:18:27.438Z,20.31
2022-08-16T05:19:25.364Z,20.40
2022-08-16T05:20:38.413Z,20.47
2022-08-16T05:21:27.076Z,20.51
2022-08-16T05:22:28.527Z,20.60
2022-08-16T05:23:25.342Z,20.63
2022-08-16T05:24:25.621Z,20.56
2022-08-16T05:25:25.365Z,20.60
2022-08-16T05:26:28.082Z,20.56
2022-08-16T05:27:25.357Z,20.63
2022-08-16T05:28:31.039Z,20.60
2022-08-16T05:29:57.766Z,20.62
2022-08-16T05:30:36.983Z,20.58
2022-08-16T05:31:29.862Z,20.62
2022-08-16T05:32:32.739Z,20.59
2022-08-16T05:33:25.308Z,20.43
2022-08-16T05:34:25.310Z,20.28
2022-08-16T05:35:25.307Z,20.31
2022-08-16T05:36:34.048Z,20.29
2022-08-16T05:37:25.314Z,20.29
2022-08-16T05:38:32.641Z,20.09
2022-08-16T05:39:25.365Z,20.11
2022-08-16T05:40:25.264Z,20.03
2022-08-16T05:41:25.285Z,20.03
2022-08-16T05:42:35.854Z,19.99
2022-08-16T05:43:25.452Z,19.88
2022-08-16T05:44:25.396Z,19.86
2022-08-16T05:45:25.271Z,19.84
2022-08-16T05:46:28.557Z,19.76
2022-08-16T05:47:25.263Z,19.91
2022-08-16T05:48:26.995Z,19.99
2022-08-16T05:49:25.269Z,20.07
2022-08-16T05:50:28.276Z,20.32
2022-08-16T05:51:37.715Z,20.37
2022-08-16T05:52:27.815Z,20.41
2022-08-16T05:53:25.233Z,20.47
2022-08-16T05:54:25.875Z,20.60
2022-08-16T05:55:25.238Z,20.67
2022-08-16T05:56:25.244Z,20.80
2022-08-16T05:57:25.228Z,20.96
2022-08-16T05:58:33.169Z,20.92
2022-08-16T05:59:26.972Z,21.07
2022-08-16T06:00:25.468Z,21.05
2022-08-16T06:01:25.271Z,21.20
2022-08-16T06:02:28.971Z,21.22
2022-08-16T06:03:25.416Z,21.32
2022-08-16T06:04:36.232Z,21.30
2022-08-16T06:05:25.184Z,21.35
2022-08-16T06:06:27.940Z,21.30
2022-08-16T06:07:26.561Z,21.54
2022-08-16T06:08:32.505Z,21.52
2022-08-16T06:09:25.163Z,21.52
2022-08-16T06:10:32.424Z,21.61
2022-08-16T06:11:25.521Z,21.69
2022-08-16T06:12:27.392Z,21.75
2022-08-16T06:13:25.151Z,21.85
2022-08-16T06:14:25.193Z,21.92
2022-08-16T06:15:25.135Z,21.93
2022-08-16T06:16:27.120Z,21.93
2022-08-16T06:17:25.130Z,21.83
2022-08-16T06:18:27.194Z,21.72
2022-08-16T06:19:25.135Z,21.85
2022-08-16T06:20:25.717Z,21.77
2022-08-16T06:21:25.205Z,21.95
2022-08-16T06:22:39.211Z,21.98
2022-08-16T06:23:25.112Z,22.00
2022-08-16T06:24:55.195Z,22.14
2022-08-16T06:25:36.576Z,22.25
2022-08-16T06:26:36.826Z,22.20
2022-08-16T06:27:25.121Z,22.11
2022-08-16T06:28:35.615Z,22.08
2022-08-16T06:29:25.080Z,21.96
2022-08-16T06:30:28.738Z,21.98
2022-08-16T06:31:25.192Z,21.83
2022-08-16T06:32:27.225Z,21.82
2022-08-16T06:33:25.055Z,21.92
2022-08-16T06:34:31.673Z,21.92
2022-08-16T06:35:25.058Z,21.80
2022-08-16T06:36:26.839Z,21.95
2022-08-16T06:37:25.047Z,22.06
2022-08-16T06:38:33.291Z,22.11
2022-08-16T06:39:25.103Z,22.14
2022-08-16T06:40:25.852Z,22.08
2022-08-16T06:41:27.380Z,21.95
2022-08-16T06:42:25.075Z,22.08
2022-08-16T06:43:27.131Z,22.18
2022-08-16T06:44:27.026Z,22.33
2022-08-16T06:45:25.052Z,22.38
2022-08-16T06:46:31.708Z,22.43
2022-08-16T06:47:25.060Z,22.57
2022-08-16T06:48:32.829Z,22.69
2022-08-16T06:49:25.048Z,22.80
2022-08-16T06:50:28.551Z,22.83
2022-08-16T06:52:57.757Z,22.60
2022-08-16T06:53:25.067Z,22.68
2022-08-16T06:54:25.015Z,22.73
2022-08-16T06:55:24.990Z,22.70
2022-08-16T06:56:24.978Z,22.60
2022-08-16T06:57:24.998Z,22.60
2022-08-16T06:58:31.962Z,22.60
2022-08-16T06:59:25.598Z,22.69
2022-08-16T07:00:25.178Z,22.90
2022-08-16T07:01:43.270Z,22.85
2022-08-16T07:02:33.400Z,23.06
2022-08-16T07:03:27.412Z,23.09
2022-08-16T07:04:32.932Z,23.12
2022-08-16T07:05:27.075Z,23.17
2022-08-16T07:06:26.502Z,23.28
2022-08-16T07:07:24.958Z,23.46
2022-08-16T07:08:24.972Z,23.59
2022-08-16T07:09:24.962Z,23.66
2022-08-16T07:10:25.726Z,23.80
2022-08-16T07:11:46.029Z,23.74
2022-08-16T07:12:36.629Z,23.83
2022-08-16T07:13:58.813Z,24.05
2022-08-16T07:14:27.201Z,24.21
2022-08-16T07:15:25.258Z,24.48
2022-08-16T07:16:27.740Z,24.40
2022-08-16T07:17:25.022Z,24.40
2022-08-16T07:18:24.903Z,24.21
2022-08-16T07:20:01.587Z,24.36
2022-08-16T07:20:35.517Z,24.53
2022-08-16T07:21:24.904Z,24.55
2022-08-16T07:22:37.965Z,24.57
2022-08-16T07:23:37.333Z,24.74
2022-08-16T07:24:30.428Z,24.68
2022-08-16T07:25:24.926Z,24.73
2022-08-16T07:26:25.656Z,24.70
2022-08-16T07:27:24.923Z,24.76
2022-08-16T07:28:24.893Z,24.88
2022-08-16T07:29:24.987Z,24.89
2022-08-16T07:30:38.184Z,24.88
2022-08-16T07:31:24.880Z,24.39
2022-08-16T07:32:29.629Z,24.23
2022-08-16T07:33:52.071Z,24.38
2022-08-16T07:34:35.569Z,24.43
2022-08-16T07:35:24.931Z,24.38
2022-08-16T07:36:24.865Z,24.35
2022-08-16T07:37:24.885Z,24.51
2022-08-16T07:38:33.779Z,24.54
2022-08-16T07:39:24.887Z,24.69
2022-08-16T07:40:48.973Z,24.78
2022-08-16T07:41:24.863Z,24.95
2022-08-16T07:42:28.337Z,24.96
2022-08-16T07:43:24.869Z,24.81
2022-08-16T07:44:24.887Z,24.74
2022-08-16T07:45:24.862Z,24.68
2022-08-16T07:46:37.773Z,24.69
2022-08-16T07:47:31.506Z,24.69
2022-08-16T07:48:24.891Z,24.99
2022-08-16T07:49:24.886Z,25.35
2022-08-16T07:53:24.971Z,25.87
2022-08-16T07:54:31.997Z,25.98
2022-08-16T07:55:24.842Z,25.99
2022-08-16T07:56:34.096Z,25.81
2022-08-16T07:57:24.862Z,25.85
2022-08-16T07:58:34.844Z,25.80
2022-08-16T07:59:24.846Z,25.80
2022-08-16T08:00:26.545Z,25.62
2022-08-16T08:01:24.983Z,25.78
2022-08-16T08:02:27.540Z,25.95
2022-08-16T08:03:24.836Z,26.05
2022-08-16T08:04:24.834Z,26.13
2022-08-16T08:05:28.192Z,26.33
2022-08-16T08:06:25.348Z,26.43
2022-08-16T08:07:27.518Z,26.29
2022-08-16T08:08:50.424Z,26.21
2022-08-16T08:09:24.800Z,25.81
2022-08-16T08:10:29.600Z,26.00
2022-08-16T08:11:25.028Z,26.31
2022-08-16T08:12:32.368Z,26.51
2022-08-16T08:13:41.651Z,26.80
2022-08-16T08:14:29.677Z,26.52
2022-08-16T08:15:25.244Z,26.66
2022-08-16T08:16:30.742Z,26.47
2022-08-16T08:17:24.811Z,26.43
2022-08-16T08:18:30.201Z,26.74
2022-08-16T08:19:24.793Z,26.45
2022-08-16T08:20:28.014Z,26.38
2022-08-16T08:21:27.685Z,26.03
2022-08-16T08:22:24.802Z,26.05
2022-08-16T08:23:24.780Z,26.15
2022-08-16T08:24:32.147Z,26.40
2022-08-16T08:25:24.881Z,26.55
2022-08-16T08:26:24.778Z,26.68
2022-08-16T08:27:24.834Z,26.78
2022-08-16T08:28:25.803Z,26.78
2022-08-16T08:29:37.426Z,26.65
2022-08-16T08:30:51.803Z,26.99
2022-08-16T08:31:24.787Z,27.29
2022-08-16T08:33:01.821Z,27.59
2022-08-16T08:33:24.810Z,27.93
2022-08-16T08:34:24.795Z,28.12
2022-08-16T08:35:27.020Z,28.17
2022-08-16T08:36:24.799Z,28.08
2022-08-16T08:37:24.771Z,27.92
2022-08-16T08:38:44.073Z,27.63
2022-08-16T08:39:24.872Z,27.71
2022-08-16T08:40:26.662Z,27.85
2022-08-16T08:41:28.429Z,27.92
2022-08-16T08:42:25.094Z,27.87
2022-08-16T08:43:24.773Z,28.10
2022-08-16T08:44:29.482Z,28.35
2022-08-16T08:45:47.015Z,28.66
2022-08-16T08:46:24.866Z,28.63
2022-08-16T08:47:24.786Z,28.60
2022-08-16T08:48:33.491Z,28.51
2022-08-16T08:49:24.952Z,28.45
2022-08-16T08:50:31.673Z,28.59
2022-08-16T08:51:24.780Z,28.44
2022-08-16T08:52:34.335Z,28.51
2022-08-16T08:53:29.500Z,28.20
2022-08-16T08:54:24.980Z,27.98
2022-08-16T08:55:24.771Z,27.95
2022-08-16T08:56:25.673Z,28.23
2022-08-16T08:57:24.788Z,28.47
2022-08-16T08:58:24.796Z,28.81
2022-08-16T08:59:24.775Z,28.72
2022-08-16T09:00:26.947Z,28.79
2022-08-16T09:01:31.366Z,28.96
2022-08-16T09:02:24.935Z,28.63
2022-08-16T09:03:24.992Z,28.17
2022-08-16T09:04:25.163Z,27.85
2022-08-16T09:05:25.535Z,27.73
2022-08-16T09:06:25.311Z,27.54
2022-08-16T09:07:25.232Z,27.52
2022-08-16T09:08:26.467Z,27.44
2022-08-16T09:09:24.779Z,27.47
2022-08-16T09:10:24.830Z,27.47
2022-08-16T09:11:40.697Z,27.33
2022-08-16T09:12:31.295Z,27.25
2022-08-16T09:13:24.793Z,27.27
2022-08-16T09:14:25.068Z,27.15
2022-08-16T09:15:24.776Z,27.12
2022-08-16T09:17:01.043Z,26.93
2022-08-16T09:17:49.170Z,26.73
2022-08-16T09:18:27.057Z,26.55
2022-08-16T09:19:32.884Z,26.34
2022-08-16T09:20:25.601Z,26.41
2022-08-16T09:21:31.231Z,26.43
2022-08-16T09:22:24.755Z,26.43
2022-08-16T09:23:24.772Z,26.40
2022-08-16T09:24:46.779Z,26.40
2022-08-16T09:25:33.573Z,26.40
2022-08-16T09:26:45.266Z,26.28
2022-08-16T09:27:25.366Z,26.31
2022-08-16T09:29:13.516Z,26.28
2022-08-16T09:29:44.401Z,26.33
2022-08-16T09:30:34.402Z,26.40
2022-08-16T09:31:24.739Z,26.45
2022-08-16T09:32:28.938Z,26.43
2022-08-16T09:33:24.901Z,26.44
2022-08-16T09:34:24.748Z,26.53
2022-08-16T09:35:24.898Z,26.48
2022-08-16T09:36:32.473Z,26.40
2022-08-16T09:37:29.811Z,26.38
2022-08-16T09:38:31.935Z,26.33
2022-08-16T09:39:25.088Z,26.26
2022-08-16T09:40:32.369Z,26.29
2022-08-16T09:41:25.293Z,26.33
2022-08-16T09:42:25.299Z,26.22
2022-08-16T09:43:58.151Z,26.23
2022-08-16T09:45:09.099Z,26.25
2022-08-16T09:45:25.146Z,26.29
2022-08-16T09:46:48.059Z,26.36
2022-08-16T09:47:25.732Z,26.45
2022-08-16T09:48:44.016Z,26.52
2022-08-16T09:49:25.393Z,26.55
2022-08-16T09:50:25.037Z,26.65
2022-08-16T09:51:25.020Z,26.58
2022-08-16T09:52:25.242Z,26.58
2022-08-16T09:53:25.266Z,26.63
2022-08-16T09:54:25.084Z,26.65
2022-08-16T09:55:25.334Z,26.62
2022-08-16T09:56:26.569Z,26.63
2022-08-16T09:57:24.958Z,26.65
2022-08-16T09:58:41.933Z,26.60
2022-08-16T09:59:25.502Z,26.63
2022-08-16T10:00:43.932Z,26.65
2022-08-16T10:01:25.101Z,26.60
2022-08-16T10:02:26.920Z,26.75
2022-08-16T10:03:25.203Z,26.78
2022-08-16T10:04:30.243Z,26.83
2022-08-16T10:05:25.133Z,26.89
2022-08-16T10:06:25.108Z,26.90
2022-08-16T10:07:25.135Z,26.95
2022-08-16T10:08:27.101Z,26.93
2022-08-16T10:09:24.712Z,26.89
2022-08-16T10:10:31.027Z,26.85
2022-08-16T10:11:25.442Z,26.89
2022-08-16T10:12:25.189Z,26.92
2022-08-16T10:13:24.973Z,27.08
2022-08-16T10:14:33.206Z,27.10
2022-08-16T10:15:25.574Z,27.32
2022-08-16T10:16:24.955Z,27.26
2022-08-16T10:18:53.944Z,27.17
2022-08-16T10:19:25.476Z,27.15
2022-08-16T10:20:25.248Z,27.21
2022-08-16T10:21:25.008Z,27.15
2022-08-16T10:22:25.388Z,27.30
2022-08-16T10:23:25.039Z,27.49
2022-08-16T10:24:28.112Z,27.70
2022-08-16T10:27:17.795Z,27.65
2022-08-16T10:27:19.841Z,27.67
2022-08-16T10:27:27.295Z,27.75
2022-08-16T10:28:28.941Z,27.77
2022-08-16T10:29:25.396Z,27.83
2022-08-16T10:30:28.486Z,27.86
2022-08-16T10:31:45.364Z,27.87
2022-08-16T10:32:25.005Z,27.93
2022-08-16T10:33:25.099Z,28.08
2022-08-16T10:34:31.150Z,28.10
2022-08-16T10:35:32.626Z,28.14
2022-08-16T10:36:39.278Z,28.14
2022-08-16T10:37:32.833Z,27.98
2022-08-16T10:38:27.079Z,27.90
2022-08-16T10:39:25.378Z,27.83
2022-08-16T10:40:29.843Z,27.82
2022-08-16T10:41:25.286Z,27.82
2022-08-16T10:43:25.495Z,27.98
2022-08-16T10:44:24.915Z,28.20
2022-08-16T10:45:25.077Z,28.32
2022-08-16T10:46:39.572Z,28.51
2022-08-16T10:47:24.978Z,28.76
2022-08-16T10:48:28.661Z,29.02
2022-08-16T10:49:24.942Z,29.10
2022-08-16T10:51:33.350Z,29.47
2022-08-16T10:52:24.941Z,29.44
2022-08-16T10:53:24.857Z,29.51
2022-08-16T10:54:29.206Z,29.47
2022-08-16T10:55:45.161Z,29.39
2022-08-16T10:56:52.893Z,29.42
2022-08-16T10:57:24.848Z,29.32
2022-08-16T10:58:33.939Z,29.27
2022-08-16T10:59:38.139Z,29.31
2022-08-16T11:00:25.009Z,29.41
2022-08-16T11:01:43.250Z,29.45
2022-08-16T11:02:57.909Z,29.54
2022-08-16T11:03:43.090Z,29.56
2022-08-16T11:05:24.882Z,29.45
2022-08-16T11:06:26.774Z,29.53
2022-08-16T11:08:35.496Z,29.56
2022-08-16T11:09:28.739Z,29.54
2022-08-16T11:11:24.999Z,29.53
2022-08-16T11:12:25.008Z,29.54
2022-08-16T11:14:24.976Z,29.69
2022-08-16T11:15:26.241Z,29.79
2022-08-16T11:16:26.513Z,29.82
2022-08-16T11:17:24.991Z,29.90
2022-08-16T11:19:03.144Z,29.79
2022-08-16T11:19:24.988Z,29.75
2022-08-16T11:20:42.572Z,29.69
2022-08-16T11:21:28.473Z,29.65
2022-08-16T11:22:47.173Z,29.20
2022-08-16T11:23:24.779Z,29.08
2022-08-16T11:26:24.670Z,28.69
2022-08-16T11:27:35.334Z,28.63
2022-08-16T11:29:25.056Z,28.64
2022-08-16T11:30:24.765Z,28.67
2022-08-16T11:31:24.941Z,28.69
2022-08-16T11:32:31.594Z,28.78
2022-08-16T11:33:51.896Z,28.84
2022-08-16T11:34:25.015Z,28.94
2022-08-16T11:36:27.757Z,28.88
2022-08-16T11:37:27.328Z,28.94
2022-08-16T11:38:51.656Z,28.79
2022-08-16T11:39:25.292Z,28.89
2022-08-16T11:40:32.522Z,28.96
2022-08-16T11:41:24.622Z,29.14
2022-08-16T11:42:30.456Z,29.19
2022-08-16T11:43:24.989Z,29.27
2022-08-16T11:44:52.626Z,29.38
2022-08-16T11:45:25.055Z,29.39
2022-08-16T11:46:43.821Z,29.36
2022-08-16T11:47:25.446Z,29.38
2022-08-16T11:48:24.882Z,29.36
2022-08-16T11:49:24.870Z,29.45
2022-08-16T11:50:24.650Z,29.49
2022-08-16T11:51:24.646Z,29.47
2022-08-16T11:52:24.655Z,29.29
2022-08-16T11:53:24.936Z,29.19
2022-08-16T11:54:34.287Z,29.24
2022-08-16T11:55:24.747Z,29.19
2022-08-16T11:56:39.700Z,29.14
2022-08-16T11:57:24.766Z,29.12
2022-08-16T11:58:24.845Z,29.12
2022-08-16T11:59:28.387Z,29.13
2022-08-16T12:00:33.609Z,29.10
2022-08-16T12:01:29.546Z,29.17
2022-08-16T12:02:32.668Z,29.12
2022-08-16T12:03:34.797Z,29.26
2022-08-16T12:04:25.786Z,29.22
2022-08-16T12:05:24.845Z,29.34
2022-08-16T12:06:30.826Z,29.44
2022-08-16T12:07:24.936Z,29.53
2022-08-16T12:08:27.118Z,29.53
2022-08-16T12:09:24.757Z,29.65
2022-08-16T12:10:24.870Z,29.76
2022-08-16T12:11:26.533Z,29.91
2022-08-16T12:12:24.862Z,29.90
2022-08-16T12:13:24.642Z,30.05
2022-08-16T12:14:24.979Z,30.09
2022-08-16T12:15:24.975Z,30.13
2022-08-16T12:16:31.378Z,30.05
2022-08-16T12:17:24.838Z,29.88
2022-08-16T12:18:24.886Z,29.98
2022-08-16T12:19:35.323Z,29.91
2022-08-16T12:20:25.007Z,29.87
2022-08-16T12:21:24.768Z,29.88
2022-08-16T12:22:24.936Z,29.91
2022-08-16T12:24:24.973Z,29.79
2022-08-16T12:25:24.816Z,29.78
2022-08-16T12:26:24.886Z,29.81
2022-08-16T12:27:24.736Z,29.84
2022-08-16T12:28:37.072Z,29.84
2022-08-16T12:29:25.954Z,29.86
2022-08-16T12:30:27.061Z,29.94
2022-08-16T12:31:25.193Z,30.03
2022-08-16T12:32:35.803Z,30.06
2022-08-16T12:33:25.475Z,30.03
2022-08-16T12:34:28.711Z,30.09
2022-08-16T12:35:25.014Z,30.05
2022-08-16T12:36:24.777Z,30.12
2022-08-16T12:37:24.942Z,30.28
2022-08-16T12:38:41.625Z,30.34
2022-08-16T12:39:28.930Z,30.03
2022-08-16T12:40:29.351Z,30.03
2022-08-16T12:41:25.585Z,29.73
2022-08-16T12:42:34.480Z,29.49
2022-08-16T12:43:24.806Z,29.35
2022-08-16T12:44:24.650Z,29.44
2022-08-16T12:45:25.008Z,29.53
2022-08-16T12:46:25.030Z,29.54
2022-08-16T12:47:24.709Z,29.65
2022-08-16T12:48:33.168Z,29.69
2022-08-16T12:50:24.917Z,29.73
2022-08-16T12:51:24.669Z,29.78
2022-08-16T12:52:33.170Z,29.65
2022-08-16T12:53:24.792Z,29.84
2022-08-16T12:54:25.307Z,29.90
2022-08-16T12:55:24.855Z,29.94
2022-08-16T12:56:25.307Z,29.97
2022-08-16T12:57:25.181Z,30.02
2022-08-16T12:58:47.452Z,30.06
2022-08-16T12:59:24.644Z,30.15
2022-08-16T13:00:28.745Z,30.23
2022-08-16T13:01:24.671Z,30.34
2022-08-16T13:02:33.818Z,30.37
2022-08-16T13:03:24.634Z,30.37
2022-08-16T13:04:25.010Z,30.40
2022-08-16T13:05:24.666Z,30.32
2022-08-16T13:06:29.888Z,30.23
2022-08-16T13:07:27.116Z,30.08
2022-08-16T13:08:30.821Z,29.98
2022-08-16T13:09:26.593Z,30.03